Time;durP1;ratioP1;P1;durP2;ratioP2;P2;SDS_P1;SDS_P2;PMS_P1;PMS_P2;Temp;Humidity;BMP_temperature;BMP_pressure;BME280_temperature;BME280_humidity;BME280_pressure;Samples;Min_cycle;Max_cycle;Signal;HPM_P1;HPM_P2
2023/06/03 00:00:05;;;;;;;4.50;4.03;;;;;;;;;;5034843;28;20410;-85
2023/06/03 00:02:31;;;;;;;4.53;3.40;;;;;;;;;;5052355;28;20434;-85
2023/06/03 00:05:00;;;;;;;4.80;3.30;;;;;;;;;;5052752;28;20382;-85
2023/06/03 00:07:27;;;;;;;3.97;3.47;;;;;;;;;;5052513;28;20396;-85
2023/06/03 00:09:52;;;;;;;5.80;3.55;;;;;;;;;;5052710;28;20415;-84
2023/06/03 00:12:19;;;;;;;4.25;3.28;;;;;;;;;;5052457;28;20392;-86
2023/06/03 00:14:45;;;;;;;5.30;3.47;;;;;;;;;;5052259;28;20548;-84
2023/06/03 00:17:11;;;;;;;5.22;3.53;;;;;;;;;;5052409;28;20385;-84
2023/06/03 00:19:38;;;;;;;4.70;3.75;;;;;;;;;;5052096;28;20397;-85
2023/06/03 00:22:04;;;;;;;4.03;3.40;;;;;;;;;;5052258;28;20867;-84
2023/06/03 00:24:30;;;;;;;4.13;3.47;;;;;;;;;;5052507;28;20373;-84
2023/06/03 00:26:56;;;;;;;4.88;3.88;;;;;;;;;;5052192;28;20400;-84
2023/06/03 00:29:22;;;;;;;5.78;3.90;;;;;;;;;;5052186;28;20377;-84
2023/06/03 00:31:48;;;;;;;5.15;3.38;;;;;;;;;;5051547;28;20871;-84
2023/06/03 00:34:17;;;;;;;4.13;3.63;;;;;;;;;;5026577;28;20864;-85
2023/06/03 00:36:43;;;;;;;3.90;3.45;;;;;;;;;;5047983;28;20503;-84
2023/06/03 00:39:09;;;;;;;6.23;3.97;;;;;;;;;;5052192;28;20469;-84
2023/06/03 00:41:36;;;;;;;4.57;3.90;;;;;;;;;;5051884;28;20409;-85
2023/06/03 00:44:02;;;;;;;6.40;3.67;;;;;;;;;;5052096;28;20385;-84
2023/06/03 00:46:30;;;;;;;4.53;3.60;;;;;;;;;;5051668;28;20808;-85
2023/06/03 00:48:56;;;;;;;4.20;3.60;;;;;;;;;;5052001;28;20380;-85
2023/06/03 00:51:22;;;;;;;4.35;3.50;;;;;;;;;;5051690;28;20492;-85
2023/06/03 00:53:48;;;;;;;3.70;3.40;;;;;;;;;;5051788;28;20389;-85
2023/06/03 00:56:16;;;;;;;4.72;3.65;;;;;;;;;;5051840;28;20439;-85
2023/06/03 00:58:42;;;;;;;5.60;3.50;;;;;;;;;;5051711;28;20377;-85
2023/06/03 01:01:08;;;;;;;3.92;3.53;;;;;;;;;;5051443;28;20449;-85
2023/06/03 01:03:36;;;;;;;5.07;3.67;;;;;;;;;;5051340;28;20777;-85
2023/06/03 01:06:16;;;;;;;3.50;3.20;;;;;;;;;;5051768;28;20385;-85
2023/06/03 01:08:51;;;;;;;4.65;3.13;;;;;;;;;;5051249;28;20472;-85
2023/06/03 01:11:25;;;;;;;5.95;3.40;;;;;;;;;;5051511;28;20397;-85
2023/06/03 01:13:54;;;;;;;4.55;3.22;;;;;;;;;;5051406;28;20472;-84
2023/06/03 01:16:22;;;;;;;4.28;3.78;;;;;;;;;;5050668;28;20385;-84
2023/06/03 01:18:48;;;;;;;4.35;3.20;;;;;;;;;;5050947;28;20534;-84
2023/06/03 01:21:16;;;;;;;4.03;3.63;;;;;;;;;;5051298;28;20774;-84
2023/06/03 01:23:43;;;;;;;5.20;3.60;;;;;;;;;;5050829;28;20424;-83
2023/06/03 01:26:11;;;;;;;4.03;3.50;;;;;;;;;;5043864;28;20384;-86
2023/06/03 01:28:38;;;;;;;4.32;3.53;;;;;;;;;;5040491;28;20386;-85
2023/06/03 01:31:04;;;;;;;4.68;3.70;;;;;;;;;;5051060;28;20385;-85
2023/06/03 01:33:31;;;;;;;4.60;3.40;;;;;;;;;;5048961;28;20450;-85
2023/06/03 01:35:59;;;;;;;5.77;3.90;;;;;;;;;;5047994;28;20420;-84
2023/06/03 01:38:25;;;;;;;4.15;3.50;;;;;;;;;;5049891;28;20993;-83
2023/06/03 01:40:52;;;;;;;4.28;3.63;;;;;;;;;;5049925;28;20397;-84
2023/06/03 01:43:18;;;;;;;4.25;3.40;;;;;;;;;;5050201;28;20418;-82
2023/06/03 01:45:44;;;;;;;4.53;3.70;;;;;;;;;;5050680;28;20905;-85
2023/06/03 01:48:10;;;;;;;5.90;3.90;;;;;;;;;;5050754;28;20381;-84
2023/06/03 01:50:40;;;;;;;5.13;3.83;;;;;;;;;;5050674;28;20399;-84
2023/06/03 01:53:06;;;;;;;4.18;3.45;;;;;;;;;;5050958;28;20382;-84
2023/06/03 01:55:32;;;;;;;4.57;3.42;;;;;;;;;;5051001;28;20443;-84
2023/06/03 01:57:58;;;;;;;5.78;3.65;;;;;;;;;;5050995;28;20402;-84
2023/06/03 02:00:24;;;;;;;4.78;3.60;;;;;;;;;;5050924;28;20441;-84
2023/06/03 02:02:50;;;;;;;5.05;3.70;;;;;;;;;;5051282;28;20428;-85
2023/06/03 02:05:16;;;;;;;5.93;3.50;;;;;;;;;;5053349;28;20378;-84
2023/06/03 02:07:42;;;;;;;5.40;3.50;;;;;;;;;;5058443;28;20373;-84
2023/06/03 02:10:08;;;;;;;4.67;3.43;;;;;;;;;;5060339;28;20479;-84
2023/06/03 02:12:34;;;;;;;4.68;3.72;;;;;;;;;;5058729;28;20456;-84
2023/06/03 02:15:00;;;;;;;4.50;3.60;;;;;;;;;;5053571;28;20716;-84
2023/06/03 02:17:28;;;;;;;4.35;3.90;;;;;;;;;;5050827;28;20393;-84
2023/06/03 02:19:54;;;;;;;5.30;3.73;;;;;;;;;;5050779;28;20401;-84
2023/06/03 02:22:20;;;;;;;4.78;4.00;;;;;;;;;;5050406;28;20377;-84
2023/06/03 02:24:46;;;;;;;5.13;3.80;;;;;;;;;;5050537;28;20377;-84
2023/06/03 02:27:14;;;;;;;4.23;3.60;;;;;;;;;;5049938;28;20405;-85
2023/06/03 02:29:41;;;;;;;6.40;3.73;;;;;;;;;;5033664;28;20930;-84
2023/06/03 02:32:07;;;;;;;5.63;3.97;;;;;;;;;;5050663;28;20389;-84
2023/06/03 02:34:33;;;;;;;6.32;4.07;;;;;;;;;;5050623;28;20385;-84
2023/06/03 02:36:59;;;;;;;6.38;3.75;;;;;;;;;;5050530;28;20382;-84
2023/06/03 02:39:25;;;;;;;5.55;3.90;;;;;;;;;;5050464;28;20401;-84
2023/06/03 02:41:51;;;;;;;4.97;4.05;;;;;;;;;;5050497;28;20405;-84
2023/06/03 02:44:18;;;;;;;5.93;3.95;;;;;;;;;;5050517;28;20385;-84
2023/06/03 02:46:44;;;;;;;4.88;3.70;;;;;;;;;;5050398;28;20400;-84
2023/06/03 02:49:10;;;;;;;5.30;4.10;;;;;;;;;;5032614;28;20877;-85
2023/06/03 02:51:42;;;;;;;6.55;4.00;;;;;;;;;;5050115;28;20417;-85
2023/06/03 02:54:08;;;;;;;6.07;4.00;;;;;;;;;;5050527;28;20390;-84
2023/06/03 02:56:34;;;;;;;6.50;4.10;;;;;;;;;;5050373;28;20387;-85
2023/06/03 02:59:00;;;;;;;6.32;4.00;;;;;;;;;;5050372;28;20396;-85
2023/06/03 03:01:27;;;;;;;6.15;3.97;;;;;;;;;;5052700;28;20493;-85
2023/06/03 03:03:53;;;;;;;4.65;4.18;;;;;;;;;;5053929;28;20389;-85
2023/06/03 03:06:24;;;;;;;6.07;4.00;;;;;;;;;;5053853;28;20380;-85
2023/06/03 03:08:50;;;;;;;4.88;4.25;;;;;;;;;;5053733;28;20370;-85
2023/06/03 03:11:16;;;;;;;7.00;4.20;;;;;;;;;;5053767;28;20858;-85
2023/06/03 03:13:42;;;;;;;5.97;4.35;;;;;;;;;;5035726;28;20916;-84
2023/06/03 03:16:09;;;;;;;5.47;4.25;;;;;;;;;;5053688;28;20409;-84
2023/06/03 03:18:36;;;;;;;5.38;4.25;;;;;;;;;;5053625;28;20381;-83
2023/06/03 03:21:02;;;;;;;5.90;4.00;;;;;;;;;;5053427;28;20438;-83
2023/06/03 03:23:28;;;;;;;5.57;4.43;;;;;;;;;;5053598;28;20873;-84
2023/06/03 03:25:56;;;;;;;7.28;4.20;;;;;;;;;;5053426;28;20377;-84
2023/06/03 03:28:22;;;;;;;8.35;4.53;;;;;;;;;;5052961;28;20389;-84
2023/06/03 03:30:49;;;;;;;5.53;4.28;;;;;;;;;;5053138;28;20381;-84
2023/06/03 03:33:15;;;;;;;4.57;4.07;;;;;;;;;;5052724;28;20434;-84
2023/06/03 03:35:43;;;;;;;4.97;4.28;;;;;;;;;;5053429;28;20389;-84
2023/06/03 03:38:09;;;;;;;5.45;4.18;;;;;;;;;;5053170;28;20406;-84
2023/06/03 03:40:36;;;;;;;6.05;4.13;;;;;;;;;;5053115;28;20410;-84
2023/06/03 03:43:05;;;;;;;4.47;4.05;;;;;;;;;;5052802;28;20389;-84
2023/06/03 03:45:35;;;;;;;5.60;4.28;;;;;;;;;;5053057;28;20867;-84
2023/06/03 03:48:02;;;;;;;5.50;4.00;;;;;;;;;;5052932;28;20447;-84
2023/06/03 03:50:28;;;;;;;6.60;4.22;;;;;;;;;;5052812;28;20743;-84
2023/06/03 03:52:54;;;;;;;5.75;4.10;;;;;;;;;;5053024;28;20403;-84
2023/06/03 03:55:21;;;;;;;5.78;4.00;;;;;;;;;;5052958;28;20374;-84
2023/06/03 03:57:47;;;;;;;9.40;4.57;;;;;;;;;;5053017;28;20381;-84
2023/06/03 04:00:13;;;;;;;7.53;4.82;;;;;;;;;;5052608;28;20412;-84
2023/06/03 04:02:42;;;;;;;6.68;4.90;;;;;;;;;;5052832;28;20447;-84
2023/06/03 04:05:13;;;;;;;4.60;4.20;;;;;;;;;;5052401;28;20443;-84
2023/06/03 04:07:40;;;;;;;5.43;4.50;;;;;;;;;;5052492;28;20378;-84
2023/06/03 04:10:09;;;;;;;5.95;4.13;;;;;;;;;;5052715;28;20928;-84
2023/06/03 04:12:38;;;;;;;6.75;4.50;;;;;;;;;;5052599;28;20854;-84
2023/06/03 04:15:05;;;;;;;4.80;4.22;;;;;;;;;;5052147;28;20373;-84
2023/06/03 04:17:31;;;;;;;5.97;4.53;;;;;;;;;;5052644;28;20409;-83
2023/06/03 04:19:58;;;;;;;5.57;4.03;;;;;;;;;;5052427;28;21317;-83
2023/06/03 04:22:25;;;;;;;6.43;4.28;;;;;;;;;;5052386;28;20381;-83
2023/06/03 04:24:55;;;;;;;6.78;4.35;;;;;;;;;;5052410;28;20377;-84
2023/06/03 04:27:21;;;;;;;6.63;5.00;;;;;;;;;;5052268;28;20377;-84
2023/06/03 04:29:47;;;;;;;5.32;4.45;;;;;;;;;;5051961;28;20396;-84
2023/06/03 04:32:13;;;;;;;5.80;4.32;;;;;;;;;;5052062;28;20374;-84
2023/06/03 04:34:53;;;;;;;5.00;4.22;;;;;;;;;;5051455;28;20385;-84
2023/06/03 04:37:19;;;;;;;6.47;4.38;;;;;;;;;;5050267;28;20452;-85
2023/06/03 04:39:45;;;;;;;5.03;4.07;;;;;;;;;;5050042;28;20431;-84
2023/06/03 04:42:12;;;;;;;6.72;4.35;;;;;;;;;;5050189;28;20404;-84
2023/06/03 04:44:39;;;;;;;5.32;4.30;;;;;;;;;;5050028;28;20381;-85
2023/06/03 04:47:10;;;;;;;4.50;4.03;;;;;;;;;;5050171;28;20381;-84
2023/06/03 04:49:37;;;;;;;5.73;4.50;;;;;;;;;;5050147;28;20412;-84
2023/06/03 04:52:03;;;;;;;5.78;4.10;;;;;;;;;;5051605;28;20443;-85
2023/06/03 04:54:29;;;;;;;5.23;4.10;;;;;;;;;;5040851;28;20415;-84
2023/06/03 04:56:55;;;;;;;6.53;4.13;;;;;;;;;;5050201;28;20424;-84
2023/06/03 04:59:21;;;;;;;6.88;4.60;;;;;;;;;;5051481;28;20386;-85
2023/06/03 05:01:48;;;;;;;7.63;4.85;;;;;;;;;;5051276;28;20455;-85
2023/06/03 05:04:19;;;;;;;5.88;4.07;;;;;;;;;;5036517;28;20385;-83
2023/06/03 05:06:46;;;;;;;6.72;3.95;;;;;;;;;;5051170;28;20388;-84
2023/06/03 05:09:12;;;;;;;5.60;4.25;;;;;;;;;;5051569;28;20386;-82
2023/06/03 05:11:38;;;;;;;5.80;4.30;;;;;;;;;;5051143;28;20468;-83
2023/06/03 05:14:04;;;;;;;6.47;4.18;;;;;;;;;;5047749;28;20480;-84
2023/06/03 05:16:30;;;;;;;6.90;4.60;;;;;;;;;;5051237;28;20925;-83
2023/06/03 05:18:56;;;;;;;6.72;4.18;;;;;;;;;;5050992;28;20468;-84
2023/06/03 05:21:22;;;;;;;6.40;4.45;;;;;;;;;;5050615;28;20493;-84
2023/06/03 05:23:48;;;;;;;6.32;4.32;;;;;;;;;;5050292;28;20377;-84
2023/06/03 05:26:14;;;;;;;5.57;4.10;;;;;;;;;;5050559;28;20377;-82
2023/06/03 05:28:41;;;;;;;8.40;4.55;;;;;;;;;;5050832;28;20373;-85
2023/06/03 05:31:06;;;;;;;6.50;4.57;;;;;;;;;;5050847;28;20412;-82
2023/06/03 05:33:35;;;;;;;7.63;4.35;;;;;;;;;;5050613;28;20428;-83
2023/06/03 05:36:01;;;;;;;7.88;4.80;;;;;;;;;;5050845;28;20397;-82
2023/06/03 05:38:27;;;;;;;6.00;4.32;;;;;;;;;;5049281;28;20389;-82
2023/06/03 05:40:53;;;;;;;7.20;4.63;;;;;;;;;;5050206;28;20416;-83
2023/06/03 05:43:20;;;;;;;4.85;4.20;;;;;;;;;;5050074;28;20467;-83
2023/06/03 05:45:46;;;;;;;5.97;4.63;;;;;;;;;;5050787;28;20388;-83
2023/06/03 05:48:12;;;;;;;6.30;4.65;;;;;;;;;;5050565;28;20386;-83
2023/06/03 05:50:39;;;;;;;8.50;4.40;;;;;;;;;;5050452;28;20405;-83
2023/06/03 05:53:05;;;;;;;6.25;4.20;;;;;;;;;;5050666;28;20400;-83
2023/06/03 05:55:32;;;;;;;5.65;4.13;;;;;;;;;;5050985;28;20945;-84
2023/06/03 05:57:58;;;;;;;5.55;4.57;;;;;;;;;;5050465;28;20386;-84
2023/06/03 06:00:24;;;;;;;6.57;4.40;;;;;;;;;;5050393;28;20420;-83
2023/06/03 06:02:50;;;;;;;8.93;4.90;;;;;;;;;;5050569;28;20381;-82
2023/06/03 06:05:17;;;;;;;5.32;4.43;;;;;;;;;;5050793;28;20377;-83
2023/06/03 06:07:43;;;;;;;7.78;5.00;;;;;;;;;;5050173;28;20384;-84
2023/06/03 06:10:09;;;;;;;6.72;5.20;;;;;;;;;;5050699;28;20381;-84
2023/06/03 06:12:35;;;;;;;6.40;4.82;;;;;;;;;;5050922;28;20766;-84
2023/06/03 06:15:01;;;;;;;7.00;4.40;;;;;;;;;;5050347;28;20439;-85
2023/06/03 06:17:27;;;;;;;6.53;4.70;;;;;;;;;;5050269;28;20393;-85
2023/06/03 06:19:53;;;;;;;5.38;4.40;;;;;;;;;;5050351;28;20866;-85
2023/06/03 06:22:19;;;;;;;7.47;5.18;;;;;;;;;;5050188;28;20494;-86
2023/06/03 06:24:45;;;;;;;8.00;4.88;;;;;;;;;;5050695;28;20373;-85
2023/06/03 06:27:11;;;;;;;5.63;4.90;;;;;;;;;;5050662;28;20901;-85
2023/06/03 06:29:37;;;;;;;5.97;5.25;;;;;;;;;;5050365;28;20392;-85
2023/06/03 06:32:06;;;;;;;6.72;5.15;;;;;;;;;;5050725;28;20393;-85
2023/06/03 06:34:34;;;;;;;5.50;4.90;;;;;;;;;;5050252;28;20401;-84
2023/06/03 06:37:00;;;;;;;9.23;5.60;;;;;;;;;;5054747;28;20384;-85
2023/06/03 06:39:33;;;;;;;7.03;5.50;;;;;;;;;;5040512;28;20381;-85
2023/06/03 06:42:10;;;;;;;6.13;5.03;;;;;;;;;;5056424;28;20404;-85
2023/06/03 06:44:43;;;;;;;7.53;5.40;;;;;;;;;;5061628;28;20472;-85
2023/06/03 06:47:10;;;;;;;7.97;5.47;;;;;;;;;;5061401;28;20373;-85
2023/06/03 06:49:36;;;;;;;8.20;5.50;;;;;;;;;;5061325;28;20408;-85
2023/06/03 06:52:02;;;;;;;6.50;5.35;;;;;;;;;;5055028;28;20774;-85
2023/06/03 06:54:28;;;;;;;8.33;5.27;;;;;;;;;;5054123;28;20471;-85
2023/06/03 06:56:54;;;;;;;6.90;5.20;;;;;;;;;;5054021;28;20469;-84
2023/06/03 06:59:20;;;;;;;6.18;4.63;;;;;;;;;;5051928;28;20455;-84
2023/06/03 07:01:46;;;;;;;6.38;4.70;;;;;;;;;;5053799;28;20417;-85
2023/06/03 07:04:12;;;;;;;6.03;4.93;;;;;;;;;;5050776;28;20894;-84
2023/06/03 07:06:38;;;;;;;7.72;4.60;;;;;;;;;;5053895;28;20396;-84
2023/06/03 07:09:06;;;;;;;7.68;5.22;;;;;;;;;;5055294;28;20374;-85
2023/06/03 07:11:37;;;;;;;7.03;5.00;;;;;;;;;;5053686;28;20484;-84
2023/06/03 07:14:04;;;;;;;5.82;4.95;;;;;;;;;;5053897;28;20390;-84
2023/06/03 07:16:30;;;;;;;8.75;5.70;;;;;;;;;;5053499;28;20386;-85
2023/06/03 07:18:56;;;;;;;7.20;5.25;;;;;;;;;;5053351;28;20390;-84
2023/06/03 07:21:25;;;;;;;5.75;5.13;;;;;;;;;;5053373;28;21212;-84
2023/06/03 07:23:51;;;;;;;7.68;5.60;;;;;;;;;;5053345;28;20385;-85
2023/06/03 07:26:18;;;;;;;7.50;5.38;;;;;;;;;;5053554;28;20411;-85
2023/06/03 07:28:46;;;;;;;6.07;5.13;;;;;;;;;;5034553;28;20389;-86
2023/06/03 07:31:12;;;;;;;6.87;5.03;;;;;;;;;;5053463;28;20409;-81
2023/06/03 07:33:55;;;;;;;7.55;5.15;;;;;;;;;;5053456;28;20826;-86
2023/06/03 07:36:21;;;;;;;6.47;5.78;;;;;;;;;;5053547;28;20388;-82
2023/06/03 07:38:47;;;;;;;6.50;5.35;;;;;;;;;;5053577;28;20392;-84
2023/06/03 07:41:18;;;;;;;8.73;5.80;;;;;;;;;;5053123;28;20794;-83
2023/06/03 07:43:44;;;;;;;6.33;5.50;;;;;;;;;;5053259;28;20381;-84
2023/06/03 07:46:10;;;;;;;7.72;5.90;;;;;;;;;;5052930;28;20435;-85
2023/06/03 07:48:39;;;;;;;7.90;5.60;;;;;;;;;;5053102;28;20374;-82
2023/06/03 07:51:05;;;;;;;9.80;6.63;;;;;;;;;;5052764;28;20405;-82
2023/06/03 07:53:35;;;;;;;8.27;6.18;;;;;;;;;;5053097;28;20923;-81
2023/06/03 07:56:05;;;;;;;6.80;5.55;;;;;;;;;;5052761;28;20385;-81
2023/06/03 07:58:35;;;;;;;6.07;5.47;;;;;;;;;;5052980;28;20424;-81
2023/06/03 08:01:03;;;;;;;5.93;5.30;;;;;;;;;;5034624;28;20934;-84
2023/06/03 08:03:31;;;;;;;6.45;5.70;;;;;;;;;;5052974;28;20468;-85
2023/06/03 08:05:57;;;;;;;6.43;5.72;;;;;;;;;;5034950;28;20894;-84
2023/06/03 08:08:30;;;;;;;7.80;5.75;;;;;;;;;;5046364;28;20370;-83
2023/06/03 08:10:56;;;;;;;8.00;5.40;;;;;;;;;;5052846;28;20392;-84
2023/06/03 08:13:22;;;;;;;6.38;5.22;;;;;;;;;;5053067;28;20389;-83
2023/06/03 08:15:48;;;;;;;6.18;5.32;;;;;;;;;;5052779;28;20491;-82
2023/06/03 08:18:34;;;;;;;7.80;5.47;;;;;;;;;;5052805;28;20765;-84
2023/06/03 08:21:03;;;;;;;8.05;5.85;;;;;;;;;;5052334;28;20397;-83
2023/06/03 08:23:30;;;;;;;7.65;5.53;;;;;;;;;;5052193;28;20389;-81
2023/06/03 08:25:59;;;;;;;8.82;6.03;;;;;;;;;;5052058;28;21409;-80
2023/06/03 08:28:25;;;;;;;7.53;6.03;;;;;;;;;;5052075;28;20388;-82
2023/06/03 08:30:51;;;;;;;6.35;5.70;;;;;;;;;;5052166;28;20469;-82
2023/06/03 08:33:17;;;;;;;6.57;5.90;;;;;;;;;;5052247;28;20381;-82
2023/06/03 08:35:44;;;;;;;6.80;5.47;;;;;;;;;;5034581;28;20386;-82
2023/06/03 08:38:10;;;;;;;6.20;5.38;;;;;;;;;;5051730;28;20385;-82
2023/06/03 08:40:41;;;;;;;7.07;5.50;;;;;;;;;;5051950;28;20434;-82
2023/06/03 08:43:07;;;;;;;8.05;5.68;;;;;;;;;;5052010;28;20384;-85
2023/06/03 08:45:41;;;;;;;6.68;5.95;;;;;;;;;;5052004;28;20411;-84
2023/06/03 08:48:17;;;;;;;7.55;5.60;;;;;;;;;;5051982;28;20914;-83
2023/06/03 08:50:45;;;;;;;6.35;5.10;;;;;;;;;;5029298;28;20445;-84
2023/06/03 08:53:11;;;;;;;8.82;5.40;;;;;;;;;;5044972;28;20420;-85
2023/06/03 08:55:38;;;;;;;7.50;5.57;;;;;;;;;;5051745;28;20389;-83
2023/06/03 08:58:08;;;;;;;6.47;5.30;;;;;;;;;;5051048;28;20373;-83
2023/06/03 09:00:35;;;;;;;9.40;4.80;;;;;;;;;;5051448;28;20484;-84
2023/06/03 09:03:02;;;;;;;6.13;5.50;;;;;;;;;;5051810;28;20382;-85
2023/06/03 09:05:28;;;;;;;6.78;5.20;;;;;;;;;;5051398;28;20449;-84
2023/06/03 09:07:54;;;;;;;7.53;5.00;;;;;;;;;;5051152;28;20771;-84
2023/06/03 09:10:21;;;;;;;6.68;5.25;;;;;;;;;;5050203;28;20390;-84
2023/06/03 09:12:47;;;;;;;6.85;4.88;;;;;;;;;;5050922;28;21133;-84
2023/06/03 09:15:14;;;;;;;7.07;5.20;;;;;;;;;;5051032;28;20397;-81
2023/06/03 09:17:41;;;;;;;7.85;5.15;;;;;;;;;;5051428;28;20381;-80
2023/06/03 09:22:43;;;;;;;5.20;4.70;;;;;;;;;;5046286;28;20433;-78
2023/06/03 09:25:09;;;;;;;6.72;5.10;;;;;;;;;;5050767;28;20392;-78
2023/06/03 09:27:35;;;;;;;6.60;5.35;;;;;;;;;;5051256;28;20743;-78
2023/06/03 09:30:03;;;;;;;7.88;5.30;;;;;;;;;;5050843;28;20384;-79
2023/06/03 09:32:30;;;;;;;5.45;4.85;;;;;;;;;;5051079;28;20377;-78
2023/06/03 09:34:57;;;;;;;7.05;5.20;;;;;;;;;;5051362;28;20434;-78
2023/06/03 09:37:23;;;;;;;5.73;5.23;;;;;;;;;;5051306;28;20382;-79
2023/06/03 09:39:49;;;;;;;6.35;5.05;;;;;;;;;;5054640;28;20418;-78
2023/06/03 09:42:15;;;;;;;7.20;5.50;;;;;;;;;;5051214;28;20397;-79
2023/06/03 09:44:41;;;;;;;6.72;5.15;;;;;;;;;;5051114;28;20816;-79
2023/06/03 09:47:08;;;;;;;7.57;5.15;;;;;;;;;;5051426;28;20750;-79
2023/06/03 09:49:34;;;;;;;7.18;5.00;;;;;;;;;;5050755;28;20461;-79
2023/06/03 09:52:01;;;;;;;7.93;5.15;;;;;;;;;;5050895;28;20420;-79
2023/06/03 09:54:27;;;;;;;5.32;4.82;;;;;;;;;;5040932;28;20391;-79
2023/06/03 09:56:53;;;;;;;6.70;5.45;;;;;;;;;;5050666;28;20576;-80
2023/06/03 09:59:23;;;;;;;6.55;5.45;;;;;;;;;;5051028;28;20377;-80
2023/06/03 10:01:50;;;;;;;5.40;4.70;;;;;;;;;;5049648;28;20432;-80
2023/06/03 10:04:36;;;;;;;8.20;5.68;;;;;;;;;;5049745;28;20381;-80
2023/06/03 10:07:09;;;;;;;9.55;5.10;;;;;;;;;;5050308;28;20385;-81
2023/06/03 10:09:35;;;;;;;6.07;5.10;;;;;;;;;;5051983;28;20850;-81
2023/06/03 10:12:02;;;;;;;8.48;5.80;;;;;;;;;;5054025;28;20723;-80
2023/06/03 10:14:28;;;;;;;5.95;4.78;;;;;;;;;;5053200;28;20980;-81
2023/06/03 10:17:03;;;;;;;6.70;5.15;;;;;;;;;;5059091;28;20412;-81
2023/06/03 10:19:31;;;;;;;6.30;5.13;;;;;;;;;;5054927;28;20374;-81
2023/06/03 10:21:58;;;;;;;5.10;4.45;;;;;;;;;;5067231;28;20415;-81
2023/06/03 10:24:27;;;;;;;6.22;5.22;;;;;;;;;;5053576;28;20381;-81
2023/06/03 10:26:53;;;;;;;9.68;5.13;;;;;;;;;;5051684;28;20436;-81
2023/06/03 10:29:20;;;;;;;7.25;5.28;;;;;;;;;;5054488;28;20789;-81
2023/06/03 10:31:51;;;;;;;6.00;5.05;;;;;;;;;;5052017;28;20391;-81
2023/06/03 10:34:17;;;;;;;9.80;5.47;;;;;;;;;;5058617;28;20387;-81
2023/06/03 10:36:43;;;;;;;7.22;5.30;;;;;;;;;;5054724;28;20389;-81
2023/06/03 10:39:10;;;;;;;6.35;5.05;;;;;;;;;;5054677;28;20380;-84
2023/06/03 10:41:39;;;;;;;7.13;5.13;;;;;;;;;;5054543;28;20435;-81
2023/06/03 10:44:05;;;;;;;6.75;5.20;;;;;;;;;;5054525;28;20781;-79
2023/06/03 10:46:33;;;;;;;7.78;4.93;;;;;;;;;;5053448;28;20377;-79
2023/06/03 10:48:59;;;;;;;7.70;5.03;;;;;;;;;;5052681;28;20408;-80
2023/06/03 10:51:37;;;;;;;5.30;4.60;;;;;;;;;;5054229;28;20438;-80
2023/06/03 10:54:19;;;;;;;6.95;4.97;;;;;;;;;;5053773;28;20377;-80
2023/06/03 10:56:48;;;;;;;6.85;5.00;;;;;;;;;;5054257;28;20377;-80
2023/06/03 10:59:17;;;;;;;5.45;4.63;;;;;;;;;;5054192;28;20384;-80
2023/06/03 11:01:57;;;;;;;9.65;4.97;;;;;;;;;;5054062;28;20405;-80
2023/06/03 11:04:23;;;;;;;6.30;4.97;;;;;;;;;;5054274;28;20392;-80
2023/06/03 11:06:49;;;;;;;5.22;4.72;;;;;;;;;;5054198;28;20374;-80
2023/06/03 11:09:29;;;;;;;5.82;4.55;;;;;;;;;;5053881;28;20374;-80
2023/06/03 11:12:03;;;;;;;5.40;4.90;;;;;;;;;;5053957;28;20453;-80
2023/06/03 11:14:40;;;;;;;4.83;4.33;;;;;;;;;;5053959;28;20377;-80
2023/06/03 11:17:08;;;;;;;5.90;4.68;;;;;;;;;;5054180;28;20381;-80
2023/06/03 11:19:35;;;;;;;5.35;4.85;;;;;;;;;;5053389;28;20863;-79
2023/06/03 11:22:04;;;;;;;5.50;4.97;;;;;;;;;;5052847;28;20460;-80
2023/06/03 11:24:42;;;;;;;5.72;5.22;;;;;;;;;;5053611;28;20420;-80
2023/06/03 11:27:18;;;;;;;5.50;5.00;;;;;;;;;;5053911;28;20520;-79
2023/06/03 11:29:45;;;;;;;6.53;4.93;;;;;;;;;;5054019;28;20382;-80
2023/06/03 11:32:14;;;;;;;4.70;4.30;;;;;;;;;;5053638;28;20384;-80
2023/06/03 11:34:41;;;;;;;5.13;4.63;;;;;;;;;;5053538;28;20389;-79
2023/06/03 11:37:07;;;;;;;5.33;4.83;;;;;;;;;;5053632;28;21192;-80
2023/06/03 11:39:53;;;;;;;5.22;4.72;;;;;;;;;;5051453;28;20381;-80
2023/06/03 11:42:19;;;;;;;7.07;4.90;;;;;;;;;;5038217;28;20829;-80
2023/06/03 11:44:45;;;;;;;5.63;5.03;;;;;;;;;;5053371;28;20389;-79
2023/06/03 11:47:11;;;;;;;7.30;4.55;;;;;;;;;;5053458;28;20388;-79
2023/06/03 11:49:38;;;;;;;5.00;4.60;;;;;;;;;;5053378;28;20393;-79
2023/06/03 11:52:05;;;;;;;4.80;4.20;;;;;;;;;;5051596;28;20863;-79
2023/06/03 11:54:31;;;;;;;5.18;4.65;;;;;;;;;;5053327;28;20389;-79
2023/06/03 11:56:59;;;;;;;4.85;4.30;;;;;;;;;;5053140;28;20381;-79
2023/06/03 11:59:28;;;;;;;4.57;4.10;;;;;;;;;;5053164;28;20910;-80
2023/06/03 12:01:55;;;;;;;6.07;4.30;;;;;;;;;;5051456;28;20405;-80
2023/06/03 12:04:21;;;;;;;5.25;4.40;;;;;;;;;;5053115;28;20381;-79
2023/06/03 12:06:47;;;;;;;5.10;4.70;;;;;;;;;;5052899;28;20796;-79
2023/06/03 12:09:18;;;;;;;4.85;4.28;;;;;;;;;;5052943;28;20381;-80
2023/06/03 12:11:44;;;;;;;4.88;4.35;;;;;;;;;;5053012;28;20460;-79
2023/06/03 12:14:10;;;;;;;5.43;4.93;;;;;;;;;;5052924;28;20742;-79
2023/06/03 12:16:37;;;;;;;5.85;4.55;;;;;;;;;;5052900;28;20464;-80
2023/06/03 12:19:04;;;;;;;5.88;4.57;;;;;;;;;;5052732;28;20403;-79
2023/06/03 12:21:31;;;;;;;6.78;5.65;;;;;;;;;;5052294;28;20922;-79
2023/06/03 12:23:57;;;;;;;4.90;4.50;;;;;;;;;;5052407;28;20389;-79
2023/06/03 12:26:26;;;;;;;4.90;4.40;;;;;;;;;;5052373;28;20734;-80
2023/06/03 12:28:54;;;;;;;4.60;4.20;;;;;;;;;;5051436;28;20382;-79
2023/06/03 12:31:20;;;;;;;4.80;4.30;;;;;;;;;;5052376;28;20385;-79
2023/06/03 12:33:46;;;;;;;5.43;4.47;;;;;;;;;;5050635;28;20393;-80
2023/06/03 12:36:13;;;;;;;5.47;4.45;;;;;;;;;;5052432;28;20381;-80
2023/06/03 12:38:58;;;;;;;4.70;4.30;;;;;;;;;;5052552;28;20380;-79
2023/06/03 12:41:24;;;;;;;6.47;4.60;;;;;;;;;;5052486;28;20408;-77
2023/06/03 12:44:01;;;;;;;4.80;4.40;;;;;;;;;;5052474;28;20382;-79
2023/06/03 12:46:28;;;;;;;4.80;4.30;;;;;;;;;;5052090;28;20411;-78
2023/06/03 12:48:56;;;;;;;4.70;4.30;;;;;;;;;;5052441;28;20423;-78
2023/06/03 12:51:28;;;;;;;4.82;4.05;;;;;;;;;;5052389;28;20834;-78
2023/06/03 12:53:58;;;;;;;5.13;4.15;;;;;;;;;;5052290;28;20431;-78
2023/06/03 12:56:27;;;;;;;4.40;4.00;;;;;;;;;;5052154;28;20461;-78
2023/06/03 12:58:54;;;;;;;5.68;4.15;;;;;;;;;;5051825;28;20389;-78
2023/06/03 13:01:20;;;;;;;5.72;4.20;;;;;;;;;;5051972;28;20499;-78
2023/06/03 13:03:46;;;;;;;4.60;4.20;;;;;;;;;;5050768;28;20879;-79
2023/06/03 13:06:13;;;;;;;5.97;4.45;;;;;;;;;;5051849;28;20393;-79
2023/06/03 13:08:39;;;;;;;5.53;4.53;;;;;;;;;;5051602;28;20881;-79
2023/06/03 13:11:05;;;;;;;4.70;4.20;;;;;;;;;;5051759;28;20389;-78
2023/06/03 13:13:34;;;;;;;4.30;4.00;;;;;;;;;;5051496;28;20381;-78
2023/06/03 13:16:00;;;;;;;5.03;4.35;;;;;;;;;;5037840;28;20381;-79
2023/06/03 13:18:26;;;;;;;5.05;4.55;;;;;;;;;;5051718;28;20389;-78
2023/06/03 13:20:52;;;;;;;5.10;4.57;;;;;;;;;;5051271;28;20506;-78
2023/06/03 13:23:18;;;;;;;4.78;4.13;;;;;;;;;;5051743;28;20380;-78
2023/06/03 13:25:45;;;;;;;4.70;4.30;;;;;;;;;;5051584;28;20913;-78
2023/06/03 13:28:11;;;;;;;4.60;4.20;;;;;;;;;;5051349;28;20862;-78
2023/06/03 13:30:37;;;;;;;4.70;4.30;;;;;;;;;;5051442;28;20894;-79
2023/06/03 13:33:03;;;;;;;6.18;4.30;;;;;;;;;;5050945;28;20416;-79
2023/06/03 13:35:29;;;;;;;5.68;4.20;;;;;;;;;;5051434;28;20407;-78
2023/06/03 13:37:55;;;;;;;5.40;4.30;;;;;;;;;;5051309;28;20381;-79
2023/06/03 13:40:21;;;;;;;4.70;4.30;;;;;;;;;;5051248;28;20413;-78
2023/06/03 13:42:48;;;;;;;4.57;4.18;;;;;;;;;;5051396;28;20443;-79
2023/06/03 13:45:14;;;;;;;4.65;4.25;;;;;;;;;;5050908;28;20708;-78
2023/06/03 13:47:40;;;;;;;4.45;4.05;;;;;;;;;;5050924;28;20496;-78
2023/06/03 13:50:07;;;;;;;4.80;4.30;;;;;;;;;;5051203;28;20401;-78
2023/06/03 13:52:34;;;;;;;4.95;4.20;;;;;;;;;;5051217;28;20386;-78
2023/06/03 13:55:00;;;;;;;4.20;3.80;;;;;;;;;;5050992;28;20461;-79
2023/06/03 13:57:26;;;;;;;5.03;4.20;;;;;;;;;;5051234;28;20382;-78
2023/06/03 13:59:52;;;;;;;4.75;4.25;;;;;;;;;;5051203;28;20805;-78
2023/06/03 14:02:18;;;;;;;5.30;4.47;;;;;;;;;;5050862;28;20972;-79
2023/06/03 14:04:44;;;;;;;7.70;4.03;;;;;;;;;;5051178;28;20396;-78
2023/06/03 14:07:11;;;;;;;4.35;3.85;;;;;;;;;;5050997;28;20370;-78
2023/06/03 14:09:37;;;;;;;4.57;4.28;;;;;;;;;;5051085;28;20377;-78
2023/06/03 14:12:03;;;;;;;4.28;3.97;;;;;;;;;;5050822;28;20389;-78
2023/06/03 14:14:29;;;;;;;5.15;4.45;;;;;;;;;;5051013;28;20464;-79
2023/06/03 14:16:55;;;;;;;6.13;4.13;;;;;;;;;;5050527;28;20381;-78
2023/06/03 14:19:21;;;;;;;4.90;4.38;;;;;;;;;;5049599;28;20401;-78
2023/06/03 14:21:47;;;;;;;4.90;4.43;;;;;;;;;;5050578;28;20467;-78
2023/06/03 14:24:13;;;;;;;5.68;4.50;;;;;;;;;;5049564;28;20751;-78
2023/06/03 14:26:39;;;;;;;5.30;4.10;;;;;;;;;;5050768;28;20385;-78
2023/06/03 14:29:06;;;;;;;4.53;4.13;;;;;;;;;;5050580;28;20469;-78
2023/06/03 14:31:32;;;;;;;4.82;3.83;;;;;;;;;;5050634;28;20434;-78
2023/06/03 14:33:58;;;;;;;4.63;4.18;;;;;;;;;;5050903;28;20386;-78
2023/06/03 14:36:24;;;;;;;4.78;4.38;;;;;;;;;;5050649;28;20378;-78
2023/06/03 14:38:50;;;;;;;4.80;4.40;;;;;;;;;;5050869;28;20461;-78
2023/06/03 14:41:16;;;;;;;5.18;4.72;;;;;;;;;;5050605;28;20467;-78
2023/06/03 14:43:42;;;;;;;6.03;4.53;;;;;;;;;;5049769;28;20400;-78
2023/06/03 14:46:08;;;;;;;5.80;4.55;;;;;;;;;;5050666;28;20746;-78